createdAt,value
2018-07-09T00:00:52.248Z,1015.34
2018-07-09T00:01:52.206Z,1015.34
2018-07-09T00:02:52.163Z,1015.35
2018-07-09T00:03:52.120Z,1015.31
2018-07-09T00:04:52.078Z,1015.34
2018-07-09T00:05:52.036Z,1015.38
2018-07-09T00:06:51.994Z,1015.36
2018-07-09T00:07:51.953Z,1015.37
2018-07-09T00:08:51.908Z,1015.35
2018-07-09T00:09:51.866Z,1015.36
2018-07-09T00:10:51.822Z,1015.34
2018-07-09T00:11:51.781Z,1015.36
2018-07-09T00:12:51.738Z,1015.31
2018-07-09T00:13:51.695Z,1015.35
2018-07-09T00:14:51.653Z,1015.34
2018-07-09T00:15:51.610Z,1015.36
2018-07-09T00:16:51.567Z,1015.39
2018-07-09T00:17:51.525Z,1015.38
2018-07-09T00:18:51.483Z,1015.37
2018-07-09T00:19:51.439Z,1015.40
2018-07-09T00:20:51.397Z,1015.40
2018-07-09T00:21:51.355Z,1015.39
2018-07-09T00:22:51.312Z,1015.40
2018-07-09T00:23:51.269Z,1015.44
2018-07-09T00:24:51.226Z,1015.42
2018-07-09T00:25:51.184Z,1015.43
2018-07-09T00:26:51.142Z,1015.42
2018-07-09T00:27:51.099Z,1015.38
2018-07-09T00:28:51.057Z,1015.40
2018-07-09T00:29:51.015Z,1015.40
2018-07-09T00:30:50.971Z,1015.38
2018-07-09T00:31:50.928Z,1015.36
2018-07-09T00:32:50.886Z,1015.41
2018-07-09T00:33:50.843Z,1015.38
2018-07-09T00:34:50.801Z,1015.33
2018-07-09T00:35:50.758Z,1015.41
2018-07-09T00:36:50.716Z,1015.42
2018-07-09T00:37:50.678Z,1015.36
2018-07-09T00:38:50.631Z,1015.36
2018-07-09T00:39:50.588Z,1015.36
2018-07-09T00:40:50.545Z,1015.36
2018-07-09T00:41:50.503Z,1015.36
2018-07-09T00:42:50.464Z,1015.37
2018-07-09T00:43:50.417Z,1015.38
2018-07-09T00:44:50.425Z,1015.34
2018-07-09T00:45:50.335Z,1015.33
2018-07-09T00:46:50.290Z,1015.30
2018-07-09T00:47:50.246Z,1015.32
2018-07-09T00:48:50.207Z,1015.32
2018-07-09T00:49:50.162Z,1015.33
2018-07-09T00:50:50.119Z,1015.34
2018-07-09T00:51:50.076Z,1015.40
2018-07-09T00:52:50.035Z,1015.36
2018-07-09T00:53:49.991Z,1015.38
2018-07-09T00:54:49.949Z,1015.35
2018-07-09T00:55:49.906Z,1015.40
2018-07-09T00:56:49.863Z,1015.36
2018-07-09T00:57:49.821Z,1015.38
2018-07-09T00:58:49.781Z,1015.36
2018-07-09T00:59:49.736Z,1015.35
2018-07-09T01:00:49.693Z,1015.39
2018-07-09T01:01:49.651Z,1015.40
2018-07-09T01:02:49.608Z,1015.41
2018-07-09T01:03:49.565Z,1015.34
2018-07-09T01:04:49.523Z,1015.39
2018-07-09T01:05:49.479Z,1015.38
2018-07-09T01:06:49.438Z,1015.35
2018-07-09T01:07:49.394Z,1015.36
2018-07-09T01:08:49.352Z,1015.34
2018-07-09T01:09:49.310Z,1015.31
2018-07-09T01:10:49.267Z,1015.34
2018-07-09T01:11:49.223Z,1015.33
2018-07-09T01:12:49.181Z,1015.32
2018-07-09T01:13:49.139Z,1015.36
2018-07-09T01:14:49.096Z,1015.32
2018-07-09T01:15:49.053Z,1015.33
2018-07-09T01:16:49.011Z,1015.34
2018-07-09T01:17:48.969Z,1015.32
2018-07-09T01:18:48.926Z,1015.31
2018-07-09T01:19:48.882Z,1015.33
2018-07-09T01:20:48.841Z,1015.35
2018-07-09T01:21:48.798Z,1015.33
2018-07-09T01:22:48.755Z,1015.31
2018-07-09T01:23:48.712Z,1015.32
2018-07-09T01:24:48.672Z,1015.32
2018-07-09T01:25:48.627Z,1015.33
2018-07-09T01:26:48.585Z,1015.27
2018-07-09T01:27:48.541Z,1015.27
2018-07-09T01:28:48.499Z,1015.30
2018-07-09T01:29:48.456Z,1015.30
2018-07-09T01:30:48.414Z,1015.32
2018-07-09T01:31:48.370Z,1015.31
2018-07-09T01:32:48.328Z,1015.27
2018-07-09T01:33:48.287Z,1015.30
2018-07-09T01:34:48.243Z,1015.25
2018-07-09T01:35:48.200Z,1015.25
2018-07-09T01:36:48.157Z,1015.21
2018-07-09T01:37:48.115Z,1015.19
2018-07-09T01:38:48.076Z,1015.18
2018-07-09T01:39:48.029Z,1015.19
2018-07-09T01:40:47.988Z,1015.19
2018-07-09T01:41:47.944Z,1015.20
2018-07-09T01:42:47.901Z,1015.19
2018-07-09T01:43:47.858Z,1015.21
2018-07-09T01:44:47.816Z,1015.22
2018-07-09T01:45:47.774Z,1015.18
2018-07-09T01:46:47.730Z,1015.19
2018-07-09T01:47:47.687Z,1015.17
2018-07-09T01:48:47.648Z,1015.17
2018-07-09T01:49:47.604Z,1015.21
2018-07-09T01:50:47.563Z,1015.23
2018-07-09T01:51:47.517Z,1015.26
2018-07-09T01:53:47.432Z,1015.22
2018-07-09T01:54:47.389Z,1015.22
2018-07-09T01:55:47.345Z,1015.20
2018-07-09T01:56:47.303Z,1015.20
2018-07-09T01:57:47.260Z,1015.21
2018-07-09T01:58:47.218Z,1015.18
2018-07-09T01:59:47.175Z,1015.17
2018-07-09T02:00:47.132Z,1015.17
2018-07-09T02:01:47.089Z,1015.21
2018-07-09T02:02:47.047Z,1015.22
2018-07-09T02:03:47.009Z,1015.18
2018-07-09T02:04:46.961Z,1015.15
2018-07-09T02:05:46.919Z,1015.18
2018-07-09T02:06:46.877Z,1015.19
2018-07-09T02:07:46.832Z,1015.16
2018-07-09T02:08:46.792Z,1015.11
2018-07-09T02:09:46.748Z,1015.15
2018-07-09T02:10:46.755Z,1015.13
2018-07-09T02:11:46.661Z,1015.15
2018-07-09T02:12:46.619Z,1015.16
2018-07-09T02:13:46.626Z,1015.13
2018-07-09T02:14:46.534Z,1015.15
2018-07-09T02:15:46.493Z,1015.18
2018-07-09T02:16:46.448Z,1015.17
2018-07-09T02:17:46.406Z,1015.22
2018-07-09T02:18:46.363Z,1015.19
2018-07-09T02:19:46.320Z,1015.19
2018-07-09T02:20:46.277Z,1015.19
2018-07-09T02:21:46.235Z,1015.19
2018-07-09T02:22:46.192Z,1015.22
2018-07-09T02:23:46.152Z,1015.22
2018-07-09T02:24:46.106Z,1015.21
2018-07-09T02:25:46.066Z,1015.20
2018-07-09T02:26:46.021Z,1015.18
2018-07-09T02:27:45.977Z,1015.14
2018-07-09T02:28:45.935Z,1015.19
2018-07-09T02:29:45.897Z,1015.20
2018-07-09T02:30:45.850Z,1015.17
2018-07-09T02:31:45.807Z,1015.18
2018-07-09T02:32:45.764Z,1015.15
2018-07-09T02:33:45.721Z,1015.17
2018-07-09T02:34:45.680Z,1015.13
2018-07-09T02:35:45.644Z,1015.11
2018-07-09T02:36:45.596Z,1015.12
2018-07-09T02:37:45.550Z,1015.08
2018-07-09T02:38:45.508Z,1015.09
2018-07-09T02:39:45.464Z,1015.13
2018-07-09T02:40:45.422Z,1015.14
2018-07-09T02:41:45.381Z,1015.12
2018-07-09T02:42:45.338Z,1015.14
2018-07-09T02:43:45.295Z,1015.13
2018-07-09T02:44:45.262Z,1015.15
2018-07-09T02:45:45.207Z,1015.10
2018-07-09T02:46:45.164Z,1015.11
2018-07-09T02:47:45.128Z,1015.11
2018-07-09T02:48:45.079Z,1015.08
2018-07-09T02:49:45.041Z,1015.07
2018-07-09T02:50:44.993Z,1015.11
2018-07-09T02:51:44.950Z,1015.09
2018-07-09T02:52:44.908Z,1015.12
2018-07-09T02:53:44.865Z,1015.08
2018-07-09T02:54:44.822Z,1015.11
2018-07-09T02:55:44.779Z,1015.10
2018-07-09T02:56:44.753Z,1015.06
2018-07-09T02:57:44.714Z,1015.08
2018-07-09T02:58:44.652Z,1015.07
2018-07-09T02:59:44.607Z,1015.12
2018-07-09T03:00:44.617Z,1015.11
2018-07-09T03:01:44.522Z,1015.12
2018-07-09T03:02:44.480Z,1015.11
2018-07-09T03:03:44.436Z,1015.12
2018-07-09T03:04:44.393Z,1015.14
2018-07-09T03:05:44.351Z,1015.15
2018-07-09T03:06:44.308Z,1015.17
2018-07-09T03:07:44.265Z,1015.15
2018-07-09T03:08:44.222Z,1015.13
2018-07-09T03:09:44.180Z,1015.16
2018-07-09T03:10:44.145Z,1015.17
2018-07-09T03:11:44.094Z,1015.20
2018-07-09T03:12:44.051Z,1015.19
2018-07-09T03:13:44.009Z,1015.14
2018-07-09T03:14:43.966Z,1015.14
2018-07-09T03:15:43.922Z,1015.15
2018-07-09T03:16:43.880Z,1015.15
2018-07-09T03:17:43.837Z,1015.12
2018-07-09T03:18:43.805Z,1015.18
2018-07-09T03:19:43.751Z,1015.15
2018-07-09T03:20:43.708Z,1015.15
2018-07-09T03:21:43.664Z,1015.18
2018-07-09T03:22:43.622Z,1015.18
2018-07-09T03:23:43.579Z,1015.16
2018-07-09T03:24:43.536Z,1015.21
2018-07-09T03:25:43.493Z,1015.20
2018-07-09T03:26:43.451Z,1015.22
2018-07-09T03:27:43.409Z,1015.20
2018-07-09T03:28:43.365Z,1015.17
2018-07-09T03:29:43.409Z,1015.18
2018-07-09T03:30:43.280Z,1015.23
2018-07-09T03:31:43.236Z,1015.16
2018-07-09T03:32:43.193Z,1015.20
2018-07-09T03:33:43.151Z,1015.19
2018-07-09T03:34:43.108Z,1015.17
2018-07-09T03:35:43.065Z,1015.18
2018-07-09T03:36:43.025Z,1015.21
2018-07-09T03:37:42.981Z,1015.21
2018-07-09T03:38:42.937Z,1015.20
2018-07-09T03:39:42.893Z,1015.16
2018-07-09T03:40:42.851Z,1015.17
2018-07-09T03:41:42.807Z,1015.15
2018-07-09T03:42:42.765Z,1015.19
2018-07-09T03:43:42.722Z,1015.13
2018-07-09T03:44:42.680Z,1015.14
2018-07-09T03:45:42.681Z,1015.15
2018-07-09T03:46:42.596Z,1015.09
2018-07-09T03:47:42.549Z,1015.15
2018-07-09T03:48:42.506Z,1015.09
2018-07-09T03:49:42.463Z,1015.16
2018-07-09T03:50:42.421Z,1015.14
2018-07-09T03:51:42.377Z,1015.13
2018-07-09T03:52:42.337Z,1015.12
2018-07-09T03:53:42.292Z,1015.15
2018-07-09T03:54:42.250Z,1015.11
2018-07-09T03:55:42.206Z,1015.15
2018-07-09T03:56:42.163Z,1015.14
2018-07-09T03:57:42.120Z,1015.17
2018-07-09T03:58:42.078Z,1015.16
2018-07-09T03:59:42.034Z,1015.15
2018-07-09T04:00:41.992Z,1015.13
2018-07-09T04:01:41.949Z,1015.15
2018-07-09T04:02:41.906Z,1015.13
2018-07-09T04:03:41.862Z,1015.11
2018-07-09T04:04:41.820Z,1015.12
2018-07-09T04:05:41.777Z,1015.10
2018-07-09T04:06:41.734Z,1015.14
2018-07-09T04:07:41.691Z,1015.12
2018-07-09T04:08:41.798Z,1015.13
2018-07-09T04:09:41.605Z,1015.14
2018-07-09T04:10:41.563Z,1015.10
2018-07-09T04:11:41.519Z,1015.12
2018-07-09T04:12:41.477Z,1015.09
2018-07-09T04:13:41.434Z,1015.10
2018-07-09T04:14:41.410Z,1015.11
2018-07-09T04:15:41.347Z,1015.05
2018-07-09T04:16:41.305Z,1015.10
2018-07-09T04:17:41.264Z,1015.07
2018-07-09T04:18:41.219Z,1015.10
2018-07-09T04:19:41.179Z,1015.07
2018-07-09T04:20:41.133Z,1015.10
2018-07-09T04:21:41.100Z,1015.06
2018-07-09T04:22:41.047Z,1015.08
2018-07-09T04:23:41.004Z,1015.06
2018-07-09T04:24:40.961Z,1015.04
2018-07-09T04:25:40.922Z,1015.07
2018-07-09T04:26:40.876Z,1015.10
2018-07-09T04:27:40.833Z,1015.11
2018-07-09T04:28:40.789Z,1015.11
2018-07-09T04:29:40.747Z,1015.16
2018-07-09T04:30:40.704Z,1015.14
2018-07-09T04:31:40.691Z,1015.17
2018-07-09T04:32:40.617Z,1015.16
2018-07-09T04:33:40.577Z,1015.17
2018-07-09T04:34:40.532Z,1015.16
2018-07-09T04:35:40.488Z,1015.18
2018-07-09T04:36:40.445Z,1015.16
2018-07-09T04:37:40.405Z,1015.17
2018-07-09T04:38:40.360Z,1015.18
2018-07-09T04:39:40.322Z,1015.14
2018-07-09T04:40:40.274Z,1015.18
2018-07-09T04:41:40.231Z,1015.15
2018-07-09T04:42:40.188Z,1015.12
2018-07-09T04:43:40.145Z,1015.15
2018-07-09T04:44:40.101Z,1015.09
2018-07-09T04:45:40.060Z,1015.13
2018-07-09T04:46:40.018Z,1015.12
2018-07-09T04:47:39.973Z,1015.17
2018-07-09T04:48:39.930Z,1015.16
2018-07-09T04:49:39.890Z,1015.15
2018-07-09T04:50:39.845Z,1015.16
2018-07-09T04:51:39.807Z,1015.17
2018-07-09T04:52:39.759Z,1015.17
2018-07-09T04:53:39.718Z,1015.16
2018-07-09T04:54:39.673Z,1015.18
2018-07-09T04:55:39.629Z,1015.17
2018-07-09T04:56:39.587Z,1015.18
2018-07-09T04:57:39.544Z,1015.16
2018-07-09T04:58:39.501Z,1015.16
2018-07-09T04:59:39.457Z,1015.11
2018-07-09T05:00:39.415Z,1015.13
2018-07-09T05:01:39.373Z,1015.12
2018-07-09T05:02:39.330Z,1015.11
2018-07-09T05:03:39.286Z,1015.12
2018-07-09T05:04:39.244Z,1015.14
2018-07-09T05:05:39.262Z,1015.09
2018-07-09T05:06:39.158Z,1015.11
2018-07-09T05:07:39.116Z,1015.09
2018-07-09T05:08:39.072Z,1015.12
2018-07-09T05:09:39.031Z,1015.09
2018-07-09T05:10:38.987Z,1015.11
2018-07-09T05:11:38.943Z,1015.11
2018-07-09T05:12:38.902Z,1015.11
2018-07-09T05:13:38.858Z,1015.11
2018-07-09T05:14:38.815Z,1015.10
2018-07-09T05:15:38.772Z,1015.12
2018-07-09T05:16:38.730Z,1015.12
2018-07-09T05:17:38.686Z,1015.10
2018-07-09T05:18:38.644Z,1015.07
2018-07-09T05:19:38.601Z,1015.08
2018-07-09T05:20:38.704Z,1015.06
2018-07-09T05:21:38.517Z,1015.07
2018-07-09T05:22:38.472Z,1015.06
2018-07-09T05:23:38.433Z,1015.05
2018-07-09T05:24:38.387Z,1015.03
2018-07-09T05:25:38.345Z,1015.07
2018-07-09T05:26:38.301Z,1015.10
2018-07-09T05:27:38.258Z,1015.12
2018-07-09T05:28:38.216Z,1015.13
2018-07-09T05:29:38.173Z,1015.11
2018-07-09T05:30:38.135Z,1015.09
2018-07-09T05:31:38.087Z,1015.10
2018-07-09T05:32:38.045Z,1015.16
2018-07-09T05:33:38.004Z,1015.15
2018-07-09T05:34:37.960Z,1015.12
2018-07-09T05:35:37.917Z,1015.17
2018-07-09T05:36:37.874Z,1015.11
2018-07-09T05:37:37.831Z,1015.15
2018-07-09T05:38:37.789Z,1015.13
2018-07-09T05:39:37.745Z,1015.16
2018-07-09T05:40:37.703Z,1015.19
2018-07-09T05:41:37.660Z,1015.16
2018-07-09T05:42:37.618Z,1015.15
2018-07-09T05:43:37.576Z,1015.16
2018-07-09T05:44:37.532Z,1015.17
2018-07-09T05:45:37.489Z,1015.12
2018-07-09T05:46:37.452Z,1015.15
2018-07-09T05:47:37.404Z,1015.17
2018-07-09T05:48:37.361Z,1015.09
2018-07-09T05:49:37.319Z,1015.14
2018-07-09T05:50:37.276Z,1015.13
2018-07-09T05:51:37.233Z,1015.11
2018-07-09T05:52:37.195Z,1015.13
2018-07-09T05:53:37.148Z,1015.09
2018-07-09T05:54:37.106Z,1015.11
2018-07-09T05:55:37.063Z,1015.13
2018-07-09T05:56:37.024Z,1015.11
2018-07-09T05:57:36.978Z,1015.03
2018-07-09T05:58:36.935Z,1015.02
2018-07-09T05:59:36.892Z,1015.06
2018-07-09T06:00:36.860Z,1015.05
2018-07-09T06:01:36.857Z,1014.99
2018-07-09T06:02:36.765Z,1015.01
2018-07-09T06:03:36.723Z,1015.01
2018-07-09T06:04:36.685Z,1015.02
2018-07-09T06:05:36.681Z,1014.98
2018-07-09T06:06:36.595Z,1014.98
2018-07-09T06:07:36.551Z,1014.99
2018-07-09T06:08:36.509Z,1014.98
2018-07-09T06:09:36.467Z,1015.00
2018-07-09T06:10:36.426Z,1015.02
2018-07-09T06:11:36.438Z,1014.99
2018-07-09T06:12:36.341Z,1014.95
2018-07-09T06:13:36.338Z,1014.94
2018-07-09T06:14:36.254Z,1014.93
2018-07-09T06:15:36.211Z,1014.95
2018-07-09T06:16:36.176Z,1014.97
2018-07-09T06:17:36.127Z,1014.95
2018-07-09T06:18:36.089Z,1014.93
2018-07-09T06:19:36.076Z,1014.91
2018-07-09T06:20:36.000Z,1014.92
2018-07-09T06:21:35.958Z,1014.91
2018-07-09T06:22:35.915Z,1014.92
2018-07-09T06:23:35.872Z,1014.90
2018-07-09T06:24:35.830Z,1014.92
2018-07-09T06:25:35.853Z,1014.89
2018-07-09T06:26:35.746Z,1014.85
2018-07-09T06:27:35.703Z,1014.82
2018-07-09T06:28:35.661Z,1014.83
2018-07-09T06:29:35.621Z,1014.82
2018-07-09T06:30:35.577Z,1014.85
2018-07-09T06:31:35.571Z,1014.83
2018-07-09T06:32:35.496Z,1014.84
2018-07-09T06:33:35.450Z,1014.90
2018-07-09T06:34:35.408Z,1014.96
2018-07-09T06:35:35.365Z,1015.00
2018-07-09T06:36:35.323Z,1015.00
2018-07-09T06:37:35.281Z,1015.02
2018-07-09T06:38:35.238Z,1015.02
2018-07-09T06:39:35.196Z,1014.97
2018-07-09T06:40:35.154Z,1014.99
2018-07-09T06:41:35.115Z,1014.99
2018-07-09T06:42:35.071Z,1014.98
2018-07-09T06:43:35.058Z,1014.95
2018-07-09T06:44:35.004Z,1014.96
2018-07-09T06:45:34.943Z,1014.96
2018-07-09T06:46:34.902Z,1014.95
2018-07-09T06:47:34.858Z,1015.02
2018-07-09T06:48:34.817Z,1015.01
2018-07-09T06:49:34.776Z,1014.95
2018-07-09T06:50:34.733Z,1014.98
2018-07-09T06:51:34.690Z,1015.00
2018-07-09T06:52:34.648Z,1014.97
2018-07-09T06:53:34.607Z,1015.00
2018-07-09T06:54:34.564Z,1015.00
2018-07-09T06:55:34.522Z,1015.03
2018-07-09T06:56:34.481Z,1015.05
2018-07-09T06:57:34.438Z,1015.08
2018-07-09T06:58:34.397Z,1015.05
2018-07-09T06:59:34.354Z,1015.02
2018-07-09T07:00:34.312Z,1015.01
2018-07-09T07:01:34.270Z,1015.06
2018-07-09T07:02:34.229Z,1015.06
2018-07-09T07:03:34.186Z,1015.07
2018-07-09T07:04:34.145Z,1015.04
2018-07-09T07:05:34.103Z,1015.06
2018-07-09T07:06:34.062Z,1015.01
2018-07-09T07:07:34.019Z,1015.00
2018-07-09T07:08:33.977Z,1014.98
2018-07-09T07:09:33.940Z,1014.99
2018-07-09T07:10:33.895Z,1014.98
2018-07-09T07:11:33.852Z,1014.95
2018-07-09T07:12:33.814Z,1014.96
2018-07-09T07:13:33.769Z,1014.95
2018-07-09T07:14:33.728Z,1014.95
2018-07-09T07:15:33.684Z,1015.00
2018-07-09T07:16:33.643Z,1014.96
2018-07-09T07:17:33.601Z,1014.96
2018-07-09T07:18:33.560Z,1014.93
2018-07-09T07:19:33.517Z,1014.94
2018-07-09T07:20:33.476Z,1014.95
2018-07-09T07:21:33.485Z,1014.96
2018-07-09T07:22:33.393Z,1014.99
2018-07-09T07:23:33.352Z,1014.99
2018-07-09T07:24:33.308Z,1014.97
2018-07-09T07:25:33.267Z,1015.01
2018-07-09T07:26:33.280Z,1015.00
2018-07-09T07:27:33.184Z,1015.03
2018-07-09T07:28:33.142Z,1015.05
2018-07-09T07:29:33.101Z,1015.06
2018-07-09T07:30:33.061Z,1015.08
2018-07-09T07:31:33.020Z,1015.08
2018-07-09T07:32:32.975Z,1015.06
2018-07-09T07:33:32.934Z,1015.13
2018-07-09T07:34:32.893Z,1015.10
2018-07-09T07:35:32.851Z,1015.11
2018-07-09T07:36:32.809Z,1015.11
2018-07-09T07:37:32.770Z,1015.15
2018-07-09T07:38:32.727Z,1015.11
2018-07-09T07:39:32.684Z,1015.13
2018-07-09T07:40:32.643Z,1015.03
2018-07-09T07:41:32.602Z,1015.06
2018-07-09T07:42:32.560Z,1015.00
2018-07-09T07:43:32.519Z,1015.05
2018-07-09T07:44:32.477Z,1015.04
2018-07-09T07:45:32.436Z,1015.04
2018-07-09T07:46:32.395Z,1015.05
2018-07-09T07:47:32.353Z,1015.06
2018-07-09T07:48:32.315Z,1014.98
2018-07-09T07:49:32.270Z,1014.97
2018-07-09T07:50:32.393Z,1015.01
2018-07-09T07:51:32.187Z,1014.99
2018-07-09T07:52:32.145Z,1015.00
2018-07-09T07:53:32.107Z,1014.94
2018-07-09T07:54:32.064Z,1014.96
2018-07-09T07:55:32.022Z,1014.93
2018-07-09T07:56:31.981Z,1014.98
2018-07-09T07:57:31.939Z,1014.90
2018-07-09T07:58:31.899Z,1014.91
2018-07-09T07:59:31.856Z,1014.86
2018-07-09T08:00:31.815Z,1014.88
2018-07-09T08:01:31.773Z,1014.92
2018-07-09T08:02:31.733Z,1014.88
2018-07-09T08:03:31.693Z,1014.88
2018-07-09T08:04:31.650Z,1014.86
2018-07-09T08:05:31.609Z,1014.84
2018-07-09T08:06:31.569Z,1014.83
2018-07-09T08:07:31.526Z,1014.81
2018-07-09T08:08:31.485Z,1014.85
2018-07-09T08:09:31.596Z,1014.80
2018-07-09T08:10:31.404Z,1014.81
2018-07-09T08:11:47.726Z,1014.85
2018-07-09T08:13:01.006Z,1014.77
2018-07-09T08:13:31.304Z,1014.75
2018-07-09T08:14:31.239Z,1014.80
2018-07-09T08:15:31.221Z,1014.81
2018-07-09T08:16:31.156Z,1014.75
2018-07-09T08:17:31.115Z,1014.78
2018-07-09T08:18:31.075Z,1014.80
2018-07-09T08:19:31.033Z,1014.81
2018-07-09T08:20:30.992Z,1014.79
2018-07-09T08:21:30.951Z,1014.83
2018-07-09T08:22:30.910Z,1014.79
2018-07-09T08:23:30.875Z,1014.78
2018-07-09T08:24:30.828Z,1014.81
2018-07-09T08:25:30.849Z,1014.83
2018-07-09T08:26:30.747Z,1014.84
2018-07-09T08:27:30.711Z,1014.85
2018-07-09T08:28:30.664Z,1014.91
2018-07-09T08:29:30.623Z,1014.92
2018-07-09T08:30:30.582Z,1014.93
2018-07-09T08:31:30.542Z,1015.01
2018-07-09T08:32:30.503Z,1015.30
2018-07-09T08:33:30.459Z,1015.60
2018-07-09T08:34:30.420Z,1015.86
2018-07-09T08:35:30.378Z,1016.23
2018-07-09T08:36:30.337Z,1016.46
2018-07-09T08:37:30.297Z,1016.47
2018-07-09T08:38:30.256Z,1016.51
2018-07-09T08:39:30.215Z,1016.43
2018-07-09T08:40:30.174Z,1016.81
2018-07-09T08:41:30.136Z,1017.13
2018-07-09T08:42:30.094Z,1016.69
2018-07-09T08:43:30.053Z,1016.88
2018-07-09T08:44:30.015Z,1016.71
2018-07-09T08:45:29.973Z,1016.37
2018-07-09T08:46:29.935Z,1016.79
2018-07-09T08:47:29.925Z,1017.16
2018-07-09T08:48:29.851Z,1016.75
2018-07-09T08:49:29.811Z,1016.46
2018-07-09T08:50:29.771Z,1016.12
2018-07-09T08:51:29.730Z,1016.43
2018-07-09T08:52:29.690Z,1017.53
2018-07-09T08:53:29.650Z,1016.44
2018-07-09T08:54:29.614Z,1018.14
2018-07-09T08:55:29.569Z,1018.57
2018-07-09T08:56:29.529Z,1016.85
2018-07-09T08:57:29.489Z,1016.92
2018-07-09T08:58:29.450Z,1017.91
2018-07-09T08:59:29.409Z,1017.78
2018-07-09T09:00:29.369Z,1018.00
2018-07-09T09:01:29.329Z,1017.48
2018-07-09T09:02:29.289Z,1017.22
2018-07-09T09:03:29.249Z,1016.77
2018-07-09T09:04:29.209Z,1016.27
2018-07-09T09:05:29.171Z,1016.11
2018-07-09T09:06:29.130Z,1015.71
2018-07-09T09:07:29.091Z,1015.55
2018-07-09T09:08:29.053Z,1015.25
2018-07-09T09:09:29.010Z,1015.13
2018-07-09T09:10:29.005Z,1015.11
2018-07-09T09:11:28.929Z,1014.98
2018-07-09T09:12:28.891Z,1015.03
2018-07-09T09:13:28.853Z,1014.98
2018-07-09T09:14:28.826Z,1014.93
2018-07-09T09:15:28.770Z,1014.92
2018-07-09T09:16:28.747Z,1014.85
2018-07-09T09:17:28.695Z,1014.86
2018-07-09T09:18:28.652Z,1014.85
2018-07-09T09:19:28.612Z,1014.95
2018-07-09T09:20:28.573Z,1014.93
2018-07-09T09:21:28.533Z,1014.87
2018-07-09T09:22:28.494Z,1014.84
2018-07-09T09:23:28.455Z,1014.83
2018-07-09T09:24:28.415Z,1014.73
2018-07-09T09:25:28.435Z,1014.70
2018-07-09T09:26:28.337Z,1014.66
2018-07-09T09:27:28.297Z,1014.60
2018-07-09T09:28:28.257Z,1014.54
2018-07-09T09:29:28.218Z,1014.46
2018-07-09T09:30:28.180Z,1014.50
2018-07-09T09:31:28.180Z,1014.50
2018-07-09T09:32:28.101Z,1014.49
2018-07-09T09:33:28.061Z,1014.52
2018-07-09T09:34:28.023Z,1014.50
2018-07-09T09:35:27.984Z,1014.47
2018-07-09T09:36:27.943Z,1014.47
2018-07-09T09:37:27.952Z,1014.50
2018-07-09T09:38:27.866Z,1014.57
2018-07-09T09:39:27.825Z,1014.52
2018-07-09T09:40:27.785Z,1014.51
2018-07-09T09:41:27.746Z,1014.47
2018-07-09T09:42:27.707Z,1014.48
2018-07-09T09:43:27.673Z,1014.45
2018-07-09T09:44:27.626Z,1014.49
2018-07-09T09:45:27.587Z,1014.49
2018-07-09T09:46:27.548Z,1014.47
2018-07-09T09:47:27.509Z,1014.46
2018-07-09T09:48:27.475Z,1014.45
2018-07-09T09:49:27.489Z,1014.45
2018-07-09T09:50:27.389Z,1014.43
2018-07-09T09:51:27.348Z,1014.45
2018-07-09T09:52:27.311Z,1014.45
2018-07-09T09:53:27.269Z,1014.44
2018-07-09T09:54:27.228Z,1014.45
2018-07-09T09:55:27.190Z,1014.51
2018-07-09T09:56:27.151Z,1014.48
2018-07-09T09:57:27.115Z,1014.45
2018-07-09T09:58:27.067Z,1014.52
2018-07-09T09:59:27.027Z,1014.53
2018-07-09T10:00:26.989Z,1014.52
2018-07-09T10:01:26.947Z,1014.52
2018-07-09T10:02:26.917Z,1014.57
2018-07-09T10:03:26.868Z,1014.57
2018-07-09T10:04:26.826Z,1014.52
2018-07-09T10:05:26.787Z,1014.56
2018-07-09T10:06:26.746Z,1014.58
2018-07-09T10:07:26.705Z,1014.57
2018-07-09T10:08:26.668Z,1014.53
2018-07-09T10:09:26.635Z,1014.53
2018-07-09T10:10:26.585Z,1014.52
2018-07-09T10:11:26.544Z,1014.49
2018-07-09T10:12:26.504Z,1014.52
2018-07-09T10:13:26.469Z,1014.48
2018-07-09T10:14:26.423Z,1014.45
2018-07-09T10:15:26.383Z,1014.41
2018-07-09T10:16:26.344Z,1014.42
2018-07-09T10:17:26.302Z,1014.45
2018-07-09T10:18:26.262Z,1014.47
2018-07-09T10:19:26.221Z,1014.41
2018-07-09T10:20:26.181Z,1014.38
2018-07-09T10:21:26.140Z,1014.35
2018-07-09T10:22:26.101Z,1014.34
2018-07-09T10:23:26.107Z,1014.38
2018-07-09T10:24:26.019Z,1014.36
2018-07-09T10:25:25.981Z,1014.32
2018-07-09T10:26:25.939Z,1014.36
2018-07-09T10:27:25.898Z,1014.33
2018-07-09T10:28:25.858Z,1014.34
2018-07-09T10:29:25.818Z,1014.34
2018-07-09T10:30:25.787Z,1014.32
2018-07-09T10:31:25.737Z,1014.31
2018-07-09T10:32:25.699Z,1014.30
2018-07-09T10:33:25.656Z,1014.28
2018-07-09T10:34:25.619Z,1014.25
2018-07-09T10:35:25.575Z,1014.27
2018-07-09T10:36:25.534Z,1014.30
2018-07-09T10:37:25.493Z,1014.29
2018-07-09T10:38:25.454Z,1014.26
2018-07-09T10:39:25.447Z,1014.22
2018-07-09T10:40:25.372Z,1014.23
2018-07-09T10:41:25.332Z,1014.29
2018-07-09T10:42:25.290Z,1014.33
2018-07-09T10:43:25.254Z,1014.29
2018-07-09T10:45:25.171Z,1014.30
2018-07-09T10:46:25.130Z,1014.28
2018-07-09T10:47:25.089Z,1014.28
2018-07-09T10:48:25.049Z,1014.27
2018-07-09T10:49:25.008Z,1014.24
2018-07-09T10:50:24.972Z,1014.28
2018-07-09T10:51:24.927Z,1014.28
2018-07-09T10:52:24.885Z,1014.25
2018-07-09T10:53:24.845Z,1014.22
2018-07-09T10:54:24.805Z,1014.24
2018-07-09T10:55:24.765Z,1014.24
2018-07-09T10:56:24.729Z,1014.21
2018-07-09T10:57:24.683Z,1014.22
2018-07-09T10:58:24.643Z,1014.21
2018-07-09T10:59:24.602Z,1014.21
2018-07-09T11:00:24.565Z,1014.21
2018-07-09T11:01:24.520Z,1014.24
2018-07-09T11:02:24.531Z,1014.18
2018-07-09T11:03:24.440Z,1014.11
2018-07-09T11:04:24.402Z,1014.11
2018-07-09T11:05:24.358Z,1014.09
2018-07-09T11:06:24.319Z,1014.08
2018-07-09T11:07:24.328Z,1014.10
2018-07-09T11:08:24.287Z,1014.10
2018-07-09T11:09:24.197Z,1014.14
2018-07-09T11:10:24.157Z,1014.14
2018-07-09T11:11:24.115Z,1014.08
2018-07-09T11:12:24.074Z,1014.14
2018-07-09T11:13:24.034Z,1014.08
2018-07-09T11:14:23.994Z,1014.04
2018-07-09T11:15:23.953Z,1014.06
2018-07-09T11:16:23.986Z,1014.06
2018-07-09T11:17:23.871Z,1014.07
2018-07-09T11:18:23.832Z,1014.04
2018-07-09T11:19:23.790Z,1014.03
2018-07-09T11:20:23.750Z,1014.00
2018-07-09T11:21:23.710Z,1014.00
2018-07-09T11:22:23.669Z,1013.96
2018-07-09T11:23:23.628Z,1014.00
2018-07-09T11:24:23.587Z,1013.99
2018-07-09T11:25:23.547Z,1014.01
2018-07-09T11:26:23.507Z,1013.95
2018-07-09T11:27:23.465Z,1013.91
2018-07-09T11:28:23.425Z,1013.93
2018-07-09T11:29:23.479Z,1013.92
2018-07-09T11:30:23.343Z,1013.94
2018-07-09T11:31:23.302Z,1013.86
2018-07-09T11:32:23.262Z,1013.87
2018-07-09T11:33:23.221Z,1013.86
2018-07-09T11:34:23.181Z,1013.87
2018-07-09T11:35:23.140Z,1013.83
2018-07-09T11:36:23.108Z,1013.81
2018-07-09T11:37:23.059Z,1013.80
2018-07-09T11:38:23.038Z,1013.86
2018-07-09T11:39:22.979Z,1013.85
2018-07-09T11:40:22.937Z,1013.83
2018-07-09T11:41:22.895Z,1013.84
2018-07-09T11:42:22.856Z,1013.78
2018-07-09T11:43:22.814Z,1013.80
2018-07-09T11:44:22.774Z,1013.76
2018-07-09T11:45:22.734Z,1013.74
2018-07-09T11:46:22.693Z,1013.74
2018-07-09T11:47:22.651Z,1013.75
2018-07-09T11:48:22.611Z,1013.74
2018-07-09T11:49:22.571Z,1013.72
2018-07-09T11:50:22.530Z,1013.72
2018-07-09T11:51:22.489Z,1013.73
2018-07-09T11:52:22.448Z,1013.72
2018-07-09T11:53:22.408Z,1013.67
2018-07-09T11:54:22.367Z,1013.68
2018-07-09T11:55:22.326Z,1013.76
2018-07-09T11:56:22.285Z,1013.77
2018-07-09T11:57:22.245Z,1013.77
2018-07-09T11:58:22.206Z,1013.71
2018-07-09T11:59:22.163Z,1013.74
2018-07-09T12:00:22.122Z,1013.67
2018-07-09T12:01:22.081Z,1013.68
2018-07-09T12:02:22.042Z,1013.70
2018-07-09T12:03:22.001Z,1013.68
2018-07-09T12:04:21.960Z,1013.68
2018-07-09T12:05:21.919Z,1013.68
2018-07-09T12:06:21.878Z,1013.64
2018-07-09T12:07:21.837Z,1013.71